Time;durP1;ratioP1;P1;durP2;ratioP2;P2;SDS_P1;SDS_P2;PMS_P1;PMS_P2;Temp;Humidity;BMP_temperature;BMP_pressure;BME280_temperature;BME280_humidity;BME280_pressure;Samples;Min_cycle;Max_cycle;Signal;HPM_P1;HPM_P2
2021/03/15 00:00:11;;;;;;;14.13;4.03;;;7.70;99.20;;;;;;5052456;28;20176;-81
2021/03/15 00:02:39;;;;;;;18.23;4.20;;;7.70;99.60;;;;;;5052110;28;20177;-80
2021/03/15 00:05:08;;;;;;;12.43;3.47;;;7.70;99.40;;;;;;5053959;28;20647;-80
2021/03/15 00:07:34;;;;;;;12.07;4.13;;;7.70;99.40;;;;;;5054571;28;20169;-80
2021/03/15 00:10:00;;;;;;;12.87;3.57;;;7.80;99.00;;;;;;5054118;28;20173;-80
2021/03/15 00:12:26;;;;;;;15.77;3.87;;;7.80;99.00;;;;;;5053793;28;20227;-80
2021/03/15 00:14:53;;;;;;;8.30;3.63;;;7.80;99.10;;;;;;5054012;28;20247;-82
2021/03/15 00:17:19;;;;;;;14.67;4.93;;;7.90;99.60;;;;;;5053698;28;20173;-83
2021/03/15 00:19:44;;;;;;;14.13;3.83;;;7.80;99.40;;;;;;5053486;28;20184;-81
2021/03/15 00:22:10;;;;;;;14.93;4.50;;;7.90;99.60;;;;;;5054125;28;20235;-82
2021/03/15 00:24:36;;;;;;;13.30;4.07;;;7.90;99.70;;;;;;5054279;28;20180;-78
2021/03/15 00:27:02;;;;;;;10.57;3.97;;;7.90;99.90;;;;;;5043449;28;20224;-82
2021/03/15 00:29:28;;;;;;;12.83;4.57;;;7.90;99.90;;;;;;5033946;28;20181;-79
2021/03/15 00:31:53;;;;;;;8.97;4.50;;;7.90;99.90;;;;;;5033863;28;20279;-84
2021/03/15 00:34:19;;;;;;;11.97;4.93;;;7.90;99.90;;;;;;5033651;28;20276;-81
2021/03/15 00:36:45;;;;;;;11.50;4.27;;;7.80;99.90;;;;;;5034300;28;20540;-80
2021/03/15 00:39:13;;;;;;;10.63;4.20;;;7.80;99.90;;;;;;5034025;28;20181;-81
2021/03/15 00:41:40;;;;;;;15.83;4.97;;;7.90;99.90;;;;;;5033988;28;20184;-82
2021/03/15 00:44:06;;;;;;;10.23;4.33;;;7.80;99.90;;;;;;5033943;28;20178;-79
2021/03/15 00:46:32;;;;;;;12.43;4.53;;;7.80;99.90;;;;;;5034048;28;20170;-79
2021/03/15 00:48:58;;;;;;;10.63;4.40;;;7.90;99.90;;;;;;5034028;28;20193;-76
2021/03/15 00:51:23;;;;;;;14.90;5.10;;;7.90;99.90;;;;;;5033921;28;20186;-80
2021/03/15 00:53:49;;;;;;;10.90;5.40;;;8.00;99.90;;;;;;5033625;28;20188;-78
2021/03/15 00:56:15;;;;;;;9.87;5.60;;;8.00;99.90;;;;;;5033375;28;20180;-81
2021/03/15 00:58:41;;;;;;;12.23;4.87;;;8.10;99.90;;;;;;5033963;28;20166;-81
2021/03/15 01:01:06;;;;;;;12.43;5.60;;;8.10;99.90;;;;;;5033786;28;20646;-81
2021/03/15 01:03:32;;;;;;;9.73;5.40;;;8.10;99.90;;;;;;5033391;28;20177;-79
2021/03/15 01:05:59;;;;;;;11.43;5.43;;;8.20;99.90;;;;;;5033775;28;20174;-81
2021/03/15 01:08:24;;;;;;;11.13;5.03;;;8.20;99.90;;;;;;5033586;28;20673;-80
2021/03/15 01:10:50;;;;;;;9.33;5.20;;;8.30;99.90;;;;;;5033663;28;20166;-80
2021/03/15 01:13:16;;;;;;;13.60;6.57;;;8.30;99.90;;;;;;5034148;28;20174;-82
2021/03/15 01:15:43;;;;;;;11.40;6.00;;;8.30;99.90;;;;;;5033895;28;20213;-80
2021/03/15 01:18:09;;;;;;;11.73;6.33;;;8.30;99.80;;;;;;5033423;28;20177;-82
2021/03/15 01:20:36;;;;;;;10.80;6.00;;;8.40;99.90;;;;;;5033933;28;20174;-83
2021/03/15 01:23:02;;;;;;;9.93;5.30;;;8.40;99.90;;;;;;5032975;28;20166;-78
2021/03/15 01:25:34;;;;;;;8.90;4.87;;;8.40;99.90;;;;;;5033157;28;20174;-83
2021/03/15 01:28:02;;;;;;;10.77;5.80;;;8.40;99.90;;;;;;5033295;28;20184;-84
2021/03/15 01:30:30;;;;;;;14.97;6.83;;;8.40;99.90;;;;;;5033585;28;20216;-83
2021/03/15 01:32:56;;;;;;;12.77;6.00;;;8.40;99.90;;;;;;5033908;28;20197;-84
2021/03/15 01:35:22;;;;;;;11.20;6.43;;;8.30;99.90;;;;;;5033167;28;20748;-84
2021/03/15 01:37:48;;;;;;;11.20;5.43;;;8.40;99.90;;;;;;5033517;28;20170;-80
2021/03/15 01:40:14;;;;;;;11.40;6.03;;;8.30;99.90;;;;;;5032199;28;20629;-82
2021/03/15 01:42:40;;;;;;;13.63;7.80;;;8.30;99.90;;;;;;5032722;28;20248;-82
2021/03/15 01:45:07;;;;;;;12.87;6.83;;;8.30;99.90;;;;;;5033456;28;20228;-82
2021/03/15 01:47:34;;;;;;;11.67;7.07;;;8.30;99.90;;;;;;5033171;28;20189;-81
2021/03/15 01:50:00;;;;;;;10.40;6.83;;;8.30;99.90;;;;;;5032957;28;20173;-81
2021/03/15 01:52:26;;;;;;;13.37;7.47;;;8.30;99.90;;;;;;5033295;28;20176;-82
2021/03/15 01:54:52;;;;;;;13.17;7.87;;;8.30;99.90;;;;;;5032476;28;20236;-82
2021/03/15 01:57:18;;;;;;;13.93;7.20;;;8.30;99.90;;;;;;5033395;28;20166;-83
2021/03/15 01:59:44;;;;;;;17.53;8.70;;;8.30;99.90;;;;;;5031977;28;20236;-84
2021/03/15 02:02:10;;;;;;;14.73;8.00;;;8.30;99.90;;;;;;5033288;28;20170;-82
2021/03/15 02:04:36;;;;;;;15.10;8.90;;;8.40;99.90;;;;;;5033169;28;20174;-80
2021/03/15 02:07:01;;;;;;;16.70;8.70;;;8.30;99.90;;;;;;5033025;28;20176;-83
2021/03/15 02:09:27;;;;;;;15.27;9.40;;;8.40;99.90;;;;;;5032967;28;20224;-82
2021/03/15 02:12:14;;;;;;;13.13;9.83;;;8.40;99.90;;;;;;5033296;28;20170;-80
2021/03/15 02:14:43;;;;;;;11.13;8.70;;;8.40;99.90;;;;;;5033040;28;20212;-83
2021/03/15 02:17:20;;;;;;;16.07;8.83;;;8.50;99.90;;;;;;5031606;28;20219;-80
2021/03/15 02:20:02;;;;;;;20.07;9.20;;;8.50;99.90;;;;;;5032845;28;20244;-82
2021/03/15 02:22:39;;;;;;;15.63;8.97;;;8.40;99.90;;;;;;5031270;28;20200;-82
2021/03/15 02:25:11;;;;;;;13.27;8.73;;;8.50;99.90;;;;;;5031441;28;20243;-82
2021/03/15 02:28:02;;;;;;;11.97;8.63;;;8.50;99.90;;;;;;5032799;28;20701;-82
2021/03/15 02:30:58;;;;;;;17.33;9.93;;;8.50;99.90;;;;;;5032574;28;20172;-83
2021/03/15 02:33:53;;;;;;;20.27;10.53;;;8.50;99.90;;;;;;5032899;28;20188;-81
2021/03/15 02:36:20;;;;;;;19.83;11.20;;;8.50;99.90;;;;;;5010730;28;20283;-80
2021/03/15 02:38:47;;;;;;;12.73;9.07;;;8.50;99.90;;;;;;5032034;28;20227;-83
2021/03/15 02:41:17;;;;;;;15.83;10.23;;;8.40;99.90;;;;;;5032729;28;20169;-80
2021/03/15 02:43:53;;;;;;;16.70;9.27;;;8.40;99.90;;;;;;5032521;28;20653;-80
2021/03/15 02:46:22;;;;;;;15.40;9.53;;;8.50;99.90;;;;;;5032957;28;20177;-77
2021/03/15 02:48:51;;;;;;;13.97;8.37;;;8.50;99.90;;;;;;5032373;28;20195;-81
2021/03/15 02:51:20;;;;;;;13.07;8.27;;;8.50;99.90;;;;;;5032491;28;20185;-84
2021/03/15 02:53:46;;;;;;;12.13;7.73;;;8.50;99.90;;;;;;5034354;28;20182;-81
2021/03/15 02:56:21;;;;;;;13.20;7.93;;;8.50;99.90;;;;;;5036594;28;20185;-83
2021/03/15 02:58:49;;;;;;;12.43;8.10;;;8.50;99.90;;;;;;5036638;28;20219;-83
2021/03/15 03:01:20;;;;;;;12.77;8.43;;;8.60;99.90;;;;;;5035187;28;20229;-83
2021/03/15 03:03:48;;;;;;;13.93;7.77;;;8.50;99.90;;;;;;5036893;28;20256;-83
2021/03/15 03:06:16;;;;;;;10.60;6.67;;;8.50;99.90;;;;;;5036395;28;20253;-81
2021/03/15 03:08:45;;;;;;;9.33;6.07;;;8.40;99.90;;;;;;5035859;28;20168;-82
2021/03/15 03:11:13;;;;;;;10.70;5.97;;;8.40;99.90;;;;;;5035729;28;20642;-83
2021/03/15 03:13:41;;;;;;;10.70;6.47;;;8.40;99.90;;;;;;5036327;28;20303;-81
2021/03/15 03:16:07;;;;;;;9.97;6.43;;;8.40;99.90;;;;;;5036333;28;20272;-82
2021/03/15 03:18:34;;;;;;;10.03;6.23;;;8.40;99.90;;;;;;5036316;28;20178;-83
2021/03/15 03:21:01;;;;;;;11.93;6.87;;;8.30;99.90;;;;;;5036160;28;20189;-78
2021/03/15 03:23:32;;;;;;;10.23;6.87;;;8.30;99.90;;;;;;5034694;28;20483;-80
2021/03/15 03:25:59;;;;;;;9.30;7.00;;;8.30;99.90;;;;;;5036018;28;20169;-81
2021/03/15 03:28:27;;;;;;;10.03;7.00;;;8.30;99.90;;;;;;5034969;28;20257;-82
2021/03/15 03:30:56;;;;;;;12.83;8.00;;;8.40;99.90;;;;;;5036092;28;20176;-81
2021/03/15 03:33:22;;;;;;;11.77;7.00;;;8.40;99.90;;;;;;5036136;28;20642;-83
2021/03/15 03:35:48;;;;;;;12.43;7.77;;;8.30;99.90;;;;;;5034471;28;20209;-84
2021/03/15 03:38:15;;;;;;;11.90;7.53;;;8.40;99.90;;;;;;5036166;28;20215;-81
2021/03/15 03:40:41;;;;;;;12.10;7.50;;;8.40;99.90;;;;;;5036217;28;20169;-84
2021/03/15 03:43:07;;;;;;;12.43;8.37;;;8.40;99.90;;;;;;5036143;28;20170;-82
2021/03/15 03:45:33;;;;;;;13.23;7.83;;;8.40;99.90;;;;;;5035956;28;20181;-82
2021/03/15 03:47:59;;;;;;;11.63;8.17;;;8.30;99.90;;;;;;5035735;28;20681;-83
2021/03/15 03:50:28;;;;;;;13.80;8.73;;;8.30;99.90;;;;;;5035464;28;20324;-83
2021/03/15 03:53:06;;;;;;;11.33;7.30;;;8.30;99.90;;;;;;5034817;28;20185;-82
2021/03/15 03:55:37;;;;;;;12.97;8.67;;;8.30;99.90;;;;;;5036284;28;20201;-83
2021/03/15 03:58:05;;;;;;;12.00;9.10;;;8.30;99.90;;;;;;5038007;28;20162;-82
2021/03/15 04:00:32;;;;;;;16.60;9.80;;;8.30;99.90;;;;;;5036951;28;20173;-83
2021/03/15 04:03:18;;;;;;;14.67;9.53;;;8.20;99.90;;;;;;5036797;28;20240;-83
2021/03/15 04:05:52;;;;;;;17.33;10.10;;;8.20;99.90;;;;;;5034530;28;20170;-83
2021/03/15 04:08:31;;;;;;;15.97;9.23;;;8.20;99.90;;;;;;5035396;28;20169;-83
2021/03/15 04:10:58;;;;;;;14.27;9.67;;;8.10;99.90;;;;;;5035628;28;20544;-82
2021/03/15 04:13:26;;;;;;;15.33;10.00;;;8.20;99.90;;;;;;5034486;28;20192;-82
2021/03/15 04:15:51;;;;;;;13.23;9.00;;;8.10;99.90;;;;;;5035310;28;20561;-83
2021/03/15 04:18:21;;;;;;;14.57;9.30;;;8.10;99.90;;;;;;5033709;28;20173;-82
2021/03/15 04:20:53;;;;;;;10.03;8.13;;;8.00;99.90;;;;;;5035146;28;20242;-77
2021/03/15 04:23:24;;;;;;;11.20;8.43;;;7.90;99.90;;;;;;5033812;28;20201;-83
2021/03/15 04:25:51;;;;;;;11.30;8.57;;;7.90;99.90;;;;;;5035060;28;20172;-80
2021/03/15 04:28:17;;;;;;;12.00;8.67;;;7.90;99.90;;;;;;5034850;28;20505;-84
2021/03/15 04:30:44;;;;;;;14.97;9.33;;;7.90;99.90;;;;;;5034765;28;20223;-81
2021/03/15 04:33:10;;;;;;;11.80;8.93;;;7.90;99.90;;;;;;5034857;28;20162;-82
2021/03/15 04:35:37;;;;;;;17.10;9.43;;;7.80;99.90;;;;;;5035102;28;20277;-82
2021/03/15 04:38:06;;;;;;;11.90;8.40;;;7.80;99.90;;;;;;5034808;28;20169;-82
2021/03/15 04:40:32;;;;;;;11.87;8.57;;;7.80;99.90;;;;;;5034975;28;20185;-83
2021/03/15 04:43:00;;;;;;;10.87;8.80;;;7.80;99.90;;;;;;5033314;28;20177;-84
2021/03/15 04:45:31;;;;;;;11.93;8.00;;;7.80;99.90;;;;;;5034705;28;20692;-83
2021/03/15 04:48:00;;;;;;;14.00;8.40;;;7.80;99.90;;;;;;5034258;28;20202;-81
2021/03/15 04:50:27;;;;;;;9.73;7.10;;;7.90;98.80;;;;;;5034488;28;20193;-81
2021/03/15 04:52:54;;;;;;;12.33;8.23;;;7.80;97.30;;;;;;5034670;28;20166;-84
2021/03/15 04:55:20;;;;;;;9.70;7.40;;;7.70;97.50;;;;;;5034502;28;20208;-83
2021/03/15 04:57:49;;;;;;;12.47;8.57;;;7.70;98.20;;;;;;5034572;28;20271;-83
2021/03/15 05:00:16;;;;;;;13.77;9.60;;;7.70;98.60;;;;;;5034445;28;20245;-82
2021/03/15 05:02:47;;;;;;;10.53;8.80;;;7.70;99.00;;;;;;5033928;28;20162;-79
2021/03/15 05:05:14;;;;;;;13.40;9.67;;;7.80;99.00;;;;;;5032910;28;20517;-83
2021/03/15 05:07:48;;;;;;;14.43;8.83;;;7.80;99.10;;;;;;5034173;28;20739;-81
2021/03/15 05:10:17;;;;;;;13.60;9.00;;;7.80;99.20;;;;;;5033983;28;20192;-82
2021/03/15 05:12:44;;;;;;;14.97;9.17;;;7.70;99.30;;;;;;5033984;28;20525;-80
2021/03/15 05:15:12;;;;;;;10.77;9.63;;;7.60;99.40;;;;;;5034096;28;20213;-83
2021/03/15 05:17:39;;;;;;;12.47;9.03;;;7.60;98.90;;;;;;5032591;28;20180;-80
2021/03/15 05:20:08;;;;;;;15.03;9.73;;;7.60;98.20;;;;;;5033855;28;20747;-79
2021/03/15 05:22:36;;;;;;;13.10;9.17;;;7.70;97.90;;;;;;5033884;28;20170;-77
2021/03/15 05:25:05;;;;;;;12.43;9.70;;;7.70;97.50;;;;;;5033929;28;20169;-83
2021/03/15 05:27:31;;;;;;;11.67;9.30;;;7.70;97.20;;;;;;5034066;28;20618;-81
2021/03/15 05:30:03;;;;;;;13.03;10.13;;;7.70;97.10;;;;;;5033429;28;20248;-83
2021/03/15 05:32:32;;;;;;;15.03;10.97;;;7.60;96.90;;;;;;5033757;28;20185;-82
2021/03/15 05:35:00;;;;;;;17.47;11.30;;;7.60;97.30;;;;;;5033504;28;20212;-81
2021/03/15 05:37:27;;;;;;;16.73;10.80;;;7.70;97.30;;;;;;5033598;28;20166;-78
2021/03/15 05:39:53;;;;;;;18.43;12.10;;;7.80;97.10;;;;;;5033503;28;20689;-83
2021/03/15 05:42:22;;;;;;;12.47;9.77;;;7.80;97.10;;;;;;5033437;28;20248;-79
2021/03/15 05:44:59;;;;;;;13.47;9.77;;;7.80;97.10;;;;;;5033350;28;20177;-83
2021/03/15 05:47:54;;;;;;;13.70;9.90;;;7.70;97.20;;;;;;5032866;28;20197;-77
2021/03/15 05:50:29;;;;;;;14.33;9.47;;;7.60;98.00;;;;;;5033021;28;20190;-83
2021/03/15 05:53:26;;;;;;;14.43;9.67;;;7.60;97.70;;;;;;5033131;28;20172;-82
2021/03/15 05:56:15;;;;;;;16.67;9.20;;;7.60;97.90;;;;;;5033024;28;20734;-79
2021/03/15 05:59:02;;;;;;;14.40;9.33;;;7.60;97.60;;;;;;5032003;28;20573;-77
2021/03/15 06:01:57;;;;;;;14.43;8.87;;;7.60;97.60;;;;;;5032811;28;20652;-83
2021/03/15 06:05:00;;;;;;;12.20;9.50;;;7.60;97.70;;;;;;5033012;28;20165;-82
2021/03/15 06:07:32;;;;;;;15.23;9.17;;;7.50;97.40;;;;;;5033078;28;20161;-81
2021/03/15 06:10:09;;;;;;;13.53;9.63;;;7.50;97.70;;;;;;5032666;28;20253;-80
2021/03/15 06:12:56;;;;;;;15.93;8.53;;;7.40;98.50;;;;;;5033074;28;20521;-80
2021/03/15 06:15:47;;;;;;;13.33;8.60;;;7.40;98.60;;;;;;5032243;28;20213;-82
2021/03/15 06:18:15;;;;;;;16.73;8.87;;;7.30;99.30;;;;;;5032958;28;20603;-78
2021/03/15 06:20:48;;;;;;;16.93;8.23;;;7.40;99.50;;;;;;5032407;28;20264;-80
2021/03/15 06:23:15;;;;;;;13.27;8.63;;;7.30;99.70;;;;;;5032094;28;20532;-82
2021/03/15 06:25:42;;;;;;;14.13;8.60;;;7.20;99.90;;;;;;5032394;28;20638;-82
2021/03/15 06:28:08;;;;;;;13.70;8.60;;;7.10;99.90;;;;;;5032319;28;20184;-81
2021/03/15 06:30:35;;;;;;;9.83;7.47;;;7.10;99.90;;;;;;5032240;28;20178;-82
2021/03/15 06:33:01;;;;;;;13.30;7.53;;;7.10;99.90;;;;;;5032707;28;20180;-82
2021/03/15 06:35:34;;;;;;;18.17;8.27;;;7.10;99.90;;;;;;5032271;28;20212;-84
2021/03/15 06:38:00;;;;;;;14.40;8.67;;;7.10;99.90;;;;;;5032650;28;20191;-78
2021/03/15 06:40:27;;;;;;;14.67;8.90;;;7.20;99.90;;;;;;5032191;28;20183;-79
2021/03/15 06:42:54;;;;;;;17.57;8.57;;;7.30;99.90;;;;;;5032315;28;20228;-83
2021/03/15 06:45:20;;;;;;;14.00;9.07;;;7.20;99.90;;;;;;5032162;28;20197;-86
2021/03/15 06:47:49;;;;;;;13.90;7.87;;;7.10;99.90;;;;;;5031358;28;20194;-82
2021/03/15 06:50:16;;;;;;;14.37;8.20;;;7.10;99.90;;;;;;5032367;28;20189;-79
2021/03/15 06:52:51;;;;;;;19.23;8.40;;;7.10;99.90;;;;;;5032177;28;20648;-80
2021/03/15 06:55:17;;;;;;;15.97;7.93;;;7.00;99.90;;;;;;5031029;28;20205;-82
2021/03/15 06:57:43;;;;;;;16.90;9.03;;;7.10;99.90;;;;;;5031941;28;20166;-82
2021/03/15 07:00:09;;;;;;;16.63;8.30;;;7.20;99.90;;;;;;5032034;28;20165;-82
2021/03/15 07:02:35;;;;;;;15.73;9.13;;;7.30;99.90;;;;;;5032603;28;20174;-86
2021/03/15 07:05:12;;;;;;;14.20;8.67;;;7.40;99.90;;;;;;5031094;28;20634;-82
2021/03/15 07:07:48;;;;;;;18.80;8.67;;;7.40;99.90;;;;;;5032399;28;20614;-82
2021/03/15 07:10:20;;;;;;;18.13;9.73;;;7.50;99.90;;;;;;5032464;28;20652;-83
2021/03/15 07:12:46;;;;;;;20.00;9.47;;;7.50;99.90;;;;;;5031933;28;20170;-81
2021/03/15 07:15:13;;;;;;;21.60;10.43;;;7.60;99.90;;;;;;5030667;28;20236;-86
2021/03/15 07:17:39;;;;;;;22.70;9.93;;;7.50;99.90;;;;;;5031757;28;20236;-85
2021/03/15 07:20:06;;;;;;;17.87;9.77;;;7.50;99.90;;;;;;5030657;28;20178;-83
2021/03/15 07:22:32;;;;;;;18.37;7.97;;;7.50;99.90;;;;;;5030621;28;20181;-82
2021/03/15 07:25:16;;;;;;;14.73;7.53;;;7.50;99.90;;;;;;5030293;28;20551;-83
2021/03/15 07:27:44;;;;;;;18.63;7.63;;;7.50;99.90;;;;;;5030179;28;20185;-81
2021/03/15 07:30:35;;;;;;;19.37;7.70;;;7.50;99.90;;;;;;5029961;28;20579;-84
2021/03/15 07:33:06;;;;;;;18.80;8.17;;;7.50;99.90;;;;;;5030832;28;20165;-85
2021/03/15 07:35:38;;;;;;;18.77;7.77;;;7.50;99.90;;;;;;5032261;28;20217;-85
2021/03/15 07:38:04;;;;;;;13.83;8.73;;;7.60;99.90;;;;;;5030742;28;20162;-83
2021/03/15 07:40:32;;;;;;;12.57;7.53;;;7.60;99.90;;;;;;5032325;28;20626;-82
2021/03/15 07:43:10;;;;;;;14.40;7.20;;;7.60;99.90;;;;;;5034026;28;20188;-82
2021/03/15 07:45:47;;;;;;;12.43;6.63;;;7.60;99.90;;;;;;5034432;28;20217;-84
2021/03/15 07:48:20;;;;;;;22.53;7.90;;;7.80;99.90;;;;;;5036424;28;20208;-81
2021/03/15 07:51:00;;;;;;;16.67;6.67;;;7.90;99.90;;;;;;5038453;28;20187;-84
2021/03/15 07:53:42;;;;;;;16.07;6.80;;;7.80;99.90;;;;;;5033969;28;20621;-83
2021/03/15 07:56:17;;;;;;;16.07;7.40;;;7.70;99.90;;;;;;5038208;28;20225;-79
2021/03/15 07:58:43;;;;;;;15.07;6.63;;;7.70;99.90;;;;;;5054982;28;20175;-81
2021/03/15 08:01:09;;;;;;;19.10;6.93;;;7.80;99.90;;;;;;5039989;28;20169;-79
2021/03/15 08:03:39;;;;;;;15.07;6.33;;;8.00;99.90;;;;;;5035185;28;20524;-80
2021/03/15 08:06:06;;;;;;;12.53;7.10;;;8.10;98.90;;;;;;5050095;28;20177;-81
2021/03/15 08:08:33;;;;;;;11.00;6.27;;;8.20;98.70;;;;;;5049469;28;20181;-83
2021/03/15 08:10:59;;;;;;;14.47;6.80;;;8.00;98.60;;;;;;5034798;28;20680;-79
2021/03/15 08:13:29;;;;;;;13.13;6.33;;;8.10;98.40;;;;;;5034882;28;20208;-82
2021/03/15 08:15:58;;;;;;;13.90;6.60;;;8.30;97.60;;;;;;5034926;28;20240;-82
2021/03/15 08:18:26;;;;;;;9.37;6.23;;;8.30;96.50;;;;;;5035441;28;20176;-83
2021/03/15 08:21:02;;;;;;;13.30;6.30;;;8.40;95.70;;;;;;5035062;28;20169;-79
2021/03/15 08:23:37;;;;;;;11.47;5.50;;;8.50;95.40;;;;;;5055934;28;20169;-80
2021/03/15 08:26:08;;;;;;;14.67;6.83;;;8.30;95.30;;;;;;5045737;28;20246;-82
2021/03/15 08:28:35;;;;;;;12.13;5.73;;;8.30;96.00;;;;;;5034811;28;20166;-80
2021/03/15 08:31:33;;;;;;;13.87;6.27;;;8.30;95.00;;;;;;5034606;28;20166;-80
2021/03/15 08:34:00;;;;;;;15.30;6.93;;;8.30;94.50;;;;;;5034603;28;20242;-81
2021/03/15 08:36:36;;;;;;;11.30;5.87;;;8.30;94.70;;;;;;5034387;28;20231;-82
2021/03/15 08:39:27;;;;;;;14.53;6.50;;;8.30;94.40;;;;;;5033876;28;20328;-81
2021/03/15 08:42:08;;;;;;;10.47;5.47;;;8.40;95.20;;;;;;5033426;28;20181;-81
2021/03/15 08:44:38;;;;;;;12.77;6.63;;;8.40;93.60;;;;;;5033372;28;20185;-81
2021/03/15 08:47:03;;;;;;;14.00;6.13;;;8.40;93.50;;;;;;5033177;28;20169;-81
2021/03/15 08:49:31;;;;;;;12.30;5.43;;;8.40;93.50;;;;;;5033553;28;20235;-83
2021/03/15 08:51:56;;;;;;;11.77;4.90;;;8.40;93.50;;;;;;5032710;28;20200;-84
2021/03/15 08:54:42;;;;;;;11.53;5.00;;;8.40;92.40;;;;;;5033508;28;20194;-81
2021/03/15 08:57:29;;;;;;;9.60;3.80;;;8.40;93.40;;;;;;5047378;28;20207;-80
2021/03/15 08:59:55;;;;;;;7.07;2.93;;;8.40;91.70;;;;;;5046051;28;20183;-88
2021/03/15 09:02:38;;;;;;;9.67;4.23;;;8.50;89.90;;;;;;5042579;28;20555;-81
2021/03/15 09:05:22;;;;;;;8.63;3.50;;;8.50;91.20;;;;;;5049457;28;20177;-79
2021/03/15 09:07:48;;;;;;;7.10;3.13;;;8.60;89.80;;;;;;5050678;28;20195;-87
2021/03/15 09:10:23;;;;;;;9.30;3.77;;;8.80;87.30;;;;;;5032976;28;20264;-80
2021/03/15 09:13:10;;;;;;;8.70;3.80;;;8.80;85.80;;;;;;5033295;28;20180;-85
2021/03/15 09:15:38;;;;;;;9.47;3.67;;;8.90;86.50;;;;;;5035823;28;20572;-80
2021/03/15 09:18:43;;;;;;;8.83;3.97;;;8.90;84.20;;;;;;5050791;28;20251;-81
2021/03/15 09:21:27;;;;;;;8.93;3.73;;;8.80;80.80;;;;;;5053666;28;20184;-80
2021/03/15 09:23:55;;;;;;;11.03;3.17;;;8.80;82.40;;;;;;5054803;28;20164;-84
2021/03/15 09:26:24;;;;;;;8.10;3.50;;;8.80;80.20;;;;;;5052772;28;20191;-78
2021/03/15 09:28:54;;;;;;;5.93;2.53;;;8.80;80.60;;;;;;5053610;28;20200;-82
2021/03/15 09:31:20;;;;;;;7.93;2.77;;;8.90;73.20;;;;;;5053820;28;20168;-83
2021/03/15 09:33:46;;;;;;;6.83;2.50;;;8.90;71.60;;;;;;5052338;28;20158;-83
2021/03/15 09:36:12;;;;;;;8.47;3.17;;;8.90;65.90;;;;;;5037771;28;20206;-80
2021/03/15 09:38:38;;;;;;;8.23;3.30;;;8.90;68.10;;;;;;5035942;28;20227;-85
2021/03/15 09:41:08;;;;;;;5.70;3.03;;;9.00;67.20;;;;;;5038542;28;20178;-83
2021/03/15 09:43:36;;;;;;;8.43;3.83;;;9.10;69.10;;;;;;5039178;28;20178;-83
2021/03/15 09:46:04;;;;;;;10.03;3.90;;;9.20;64.00;;;;;;5038370;28;20220;-84
2021/03/15 09:48:32;;;;;;;12.10;3.60;;;9.30;65.70;;;;;;5038070;28;20284;-85
2021/03/15 09:51:00;;;;;;;9.77;2.90;;;9.50;53.90;;;;;;5038494;28;20269;-81
2021/03/15 09:53:27;;;;;;;8.73;3.03;;;9.40;50.60;;;;;;5039228;28;20165;-83
2021/03/15 09:56:08;;;;;;;9.80;2.70;;;9.20;48.00;;;;;;5039710;28;20207;-83
2021/03/15 09:58:33;;;;;;;7.83;2.77;;;9.10;48.50;;;;;;5039451;28;20153;-79
2021/03/15 10:00:59;;;;;;;8.37;3.10;;;9.00;46.50;;;;;;5038124;28;20207;-86
2021/03/15 10:03:27;;;;;;;9.47;2.60;;;9.00;49.50;;;;;;5033623;28;20264;-81
2021/03/15 10:05:54;;;;;;;13.07;2.87;;;9.10;45.10;;;;;;5036487;28;20227;-79
2021/03/15 10:08:21;;;;;;;10.27;2.70;;;9.20;47.30;;;;;;5033955;28;20652;-82
2021/03/15 10:10:46;;;;;;;8.53;2.80;;;9.40;43.00;;;;;;5034182;28;20176;-85
2021/03/15 10:13:12;;;;;;;8.97;2.20;;;9.50;41.10;;;;;;5031038;28;20177;-81
2021/03/15 10:15:39;;;;;;;7.33;2.30;;;9.50;31.80;;;;;;5032909;28;20212;-81
2021/03/15 10:18:05;;;;;;;7.97;2.03;;;9.60;10.20;;;;;;5033404;28;20200;-81
2021/03/15 10:20:33;;;;;;;6.60;2.30;;;9.60;6.20;;;;;;5033887;28;20252;-80
2021/03/15 10:23:14;;;;;;;8.53;3.50;;;9.70;5.30;;;;;;5032972;28;20181;-82
2021/03/15 10:26:01;;;;;;;6.90;1.80;;;9.60;6.20;;;;;;5030896;28;20180;-83
2021/03/15 10:28:29;;;;;;;5.40;2.23;;;9.60;10.00;;;;;;5032045;28;20182;-85
2021/03/15 10:30:55;;;;;;;6.37;2.00;;;9.50;16.10;;;;;;5033343;28;20173;-80
2021/03/15 10:33:22;;;;;;;8.20;2.30;;;9.50;14.80;;;;;;5033415;28;20248;-81
2021/03/15 10:35:51;;;;;;;11.80;2.33;;;9.60;8.30;;;;;;5034674;28;20202;-81
2021/03/15 10:38:19;;;;;;;8.63;3.03;;;9.60;10.30;;;;;;5033068;28;20192;-81
2021/03/15 10:40:45;;;;;;;9.73;3.03;;;9.70;17.40;;;;;;5033463;28;20174;-81
2021/03/15 10:43:22;;;;;;;12.90;2.40;;;9.70;16.40;;;;;;5032878;28;20307;-86
2021/03/15 10:45:48;;;;;;;8.70;2.63;;;9.70;8.30;;;;;;5032724;28;20232;-84
2021/03/15 10:48:14;;;;;;;10.90;2.80;;;9.70;3.30;;;;;;5032922;28;20189;-83
2021/03/15 10:50:44;;;;;;;7.27;2.30;;;9.60;3.10;;;;;;5032505;28;20192;-87
2021/03/15 10:53:18;;;;;;;9.33;2.40;;;9.50;15.10;;;;;;5031671;28;20264;-85
2021/03/15 10:55:45;;;;;;;9.73;2.50;;;9.40;22.60;;;;;;5033288;28;20296;-86
2021/03/15 10:58:15;;;;;;;9.10;2.03;;;9.30;26.70;;;;;;5052492;28;20173;-86
2021/03/15 11:00:43;;;;;;;9.10;2.30;;;9.10;27.20;;;;;;5035822;28;20269;-79
2021/03/15 11:03:22;;;;;;;8.40;2.73;;;8.90;43.70;;;;;;5031660;28;20181;-84
2021/03/15 11:06:00;;;;;;;8.70;2.40;;;8.80;46.90;;;;;;5031518;28;20176;-80
2021/03/15 11:08:26;;;;;;;9.30;2.33;;;9.00;46.30;;;;;;5040459;28;20173;-82
2021/03/15 11:10:53;;;;;;;8.30;2.23;;;9.20;45.50;;;;;;5053527;28;20244;-86
2021/03/15 11:13:21;;;;;;;10.27;2.60;;;9.30;36.40;;;;;;5056002;28;20638;-87
2021/03/15 11:15:47;;;;;;;10.03;2.43;;;9.50;37.80;;;;;;5055274;28;20244;-87
2021/03/15 11:18:21;;;;;;;5.07;1.90;;;9.70;31.00;;;;;;5055232;28;20177;-83
2021/03/15 11:20:52;;;;;;;9.67;2.20;;;9.70;21.60;;;;;;5054273;28;20181;-81
2021/03/15 11:23:31;;;;;;;6.17;2.00;;;9.80;17.70;;;;;;5054534;28;20169;-83
2021/03/15 11:26:06;;;;;;;6.53;2.13;;;9.90;11.30;;;;;;5055636;28;20234;-80
2021/03/15 11:28:53;;;;;;;7.00;2.00;;;9.90;1.00;;;;;;5054678;28;20177;-84
2021/03/15 11:31:20;;;;;;;9.00;2.43;;;9.90;1.00;;;;;;5055507;28;20253;-86
2021/03/15 11:33:53;;;;;;;7.17;2.30;;;9.80;1.00;;;;;;5053570;28;20217;-82
2021/03/15 11:36:20;;;;;;;9.90;2.23;;;9.90;7.50;;;;;;5055177;28;20387;-79
2021/03/15 11:38:50;;;;;;;10.20;1.77;;;9.80;5.60;;;;;;5053801;28;20213;-83
2021/03/15 11:41:18;;;;;;;7.50;1.97;;;9.70;5.20;;;;;;5054967;28;20180;-84
2021/03/15 11:43:44;;;;;;;8.57;2.17;;;9.50;11.10;;;;;;5053992;28;20183;-80
2021/03/15 11:46:09;;;;;;;5.83;1.87;;;9.50;16.20;;;;;;5054749;28;20172;-80
2021/03/15 11:48:35;;;;;;;9.10;3.30;;;9.50;15.10;;;;;;5056526;28;20538;-86
2021/03/15 11:51:00;;;;;;;6.83;2.13;;;9.50;15.60;;;;;;5055329;28;20184;-87
2021/03/15 11:53:26;;;;;;;6.87;2.50;;;9.50;11.90;;;;;;5055078;28;20510;-86
2021/03/15 11:55:52;;;;;;;10.63;2.57;;;9.50;16.70;;;;;;5056572;28;20204;-84
2021/03/15 11:58:17;;;;;;;9.67;2.73;;;9.40;11.70;;;;;;5055863;28;20248;-85
2021/03/15 12:00:43;;;;;;;5.73;2.13;;;9.40;12.70;;;;;;5041881;28;20182;-81
2021/03/15 12:03:09;;;;;;;7.37;1.90;;;9.50;8.10;;;;;;5034840;28;20228;-81
2021/03/15 12:05:34;;;;;;;6.17;1.60;;;9.40;1.00;;;;;;5034660;28;20261;-80
2021/03/15 12:08:00;;;;;;;4.97;2.07;;;9.40;1.40;;;;;;5035491;28;20540;-89
2021/03/15 12:10:25;;;;;;;10.60;2.10;;;9.30;3.70;;;;;;5034099;28;20235;-84
2021/03/15 12:12:51;;;;;;;5.97;1.83;;;9.40;6.70;;;;;;5034948;28;20264;-84
2021/03/15 12:15:17;;;;;;;9.30;2.63;;;9.30;6.20;;;;;;5034619;28;20209;-82
2021/03/15 12:17:43;;;;;;;7.80;2.13;;;9.20;7.70;;;;;;5032125;28;20189;-85
2021/03/15 12:20:10;;;;;;;8.83;2.50;;;9.10;10.20;;;;;;5031540;28;20654;-83
2021/03/15 12:22:36;;;;;;;6.37;1.90;;;9.40;15.50;;;;;;5031955;28;20197;-85
2021/03/15 12:25:03;;;;;;;7.60;1.73;;;9.40;14.20;;;;;;5032954;28;20267;-85
2021/03/15 12:27:29;;;;;;;5.73;1.97;;;9.40;1.00;;;;;;5033575;28;20177;-84
2021/03/15 12:29:55;;;;;;;6.03;1.80;;;9.40;3.80;;;;;;5035524;28;20197;-83
2021/03/15 12:32:21;;;;;;;6.43;2.03;;;9.30;10.30;;;;;;5035276;28;20164;-86
2021/03/15 12:34:46;;;;;;;7.17;1.70;;;9.30;14.40;;;;;;5035179;28;20891;-87
2021/03/15 12:37:12;;;;;;;7.10;1.90;;;9.20;15.40;;;;;;5032243;28;20174;-86
2021/03/15 12:39:38;;;;;;;3.80;1.40;;;9.40;15.40;;;;;;5032209;28;20181;-85
2021/03/15 12:42:04;;;;;;;6.10;1.87;;;9.30;4.80;;;;;;5032690;28;20672;-88
2021/03/15 12:44:31;;;;;;;7.87;1.90;;;9.30;12.10;;;;;;5033391;28;20672;-87
2021/03/15 12:46:56;;;;;;;8.97;2.40;;;9.30;15.40;;;;;;5034132;28;20570;-84
2021/03/15 12:49:22;;;;;;;10.40;2.53;;;9.30;13.40;;;;;;5035174;28;20185;-86
2021/03/15 12:51:48;;;;;;;7.40;2.23;;;9.20;6.00;;;;;;5036059;28;20251;-84
2021/03/15 12:54:15;;;;;;;8.23;2.70;;;9.20;1.00;;;;;;5034265;28;20737;-85
2021/03/15 12:56:41;;;;;;;10.57;3.27;;;9.40;1.00;;;;;;5034705;28;20205;-83
2021/03/15 12:59:07;;;;;;;6.87;2.70;;;9.30;1.00;;;;;;5032947;28;20541;-81
2021/03/15 13:01:32;;;;;;;7.17;1.87;;;9.40;1.00;;;;;;5033216;28;20641;-84
2021/03/15 13:03:58;;;;;;;7.77;2.03;;;9.30;1.00;;;;;;5033974;28;20173;-84